Airfield :
LOGIN :

Register | Disclaimer

   EN    FR    IT 

 










Legend :    VFR   Marginal VFR   IFR   Intensive IFR   Very Intensive IFR
Visi :
Ceiling :
>= 8 km
>= 3000ft
5 to 8 km
1000 to 3000 ft
1500m to 5 km
500 to 1000 ft
800 to 1500m
200 to 500 ft
< 800m
< 200 ft
Symbols :   Thunderstorms  Fog  Heavy snow  Heavy precipitations  Wind > 20 kt
SIGMETs :     Misc.  Thunderstorms  Icing  Turbulence  Mountain Waves  Volcanic Ashes






- Airport Elevation : 313 ft
- IATA code : LEH


LFOH - Le Havre Octeville

CURRENT METAR :
  • 280330Z AUTO 19005KT 160V230 CAVOK 13/10 Q1022

EXPIRED METARs :
  • 280300Z AUTO 20007KT CAVOK 13/10 Q1022
  • 280230Z AUTO 21007KT CAVOK 13/10 Q1022
  • 280200Z AUTO 21007KT CAVOK 14/10 Q1022
  • 280130Z AUTO 22007KT 190V250 9999 FEW029 14/10 Q1022
  • 280100Z AUTO 21008KT 9999 BKN028 BKN062 14/11 Q1022

TAF TAF LFOH
Valid from the 27 at 12:00 until the 28 at 12:00 UTC


271100Z 2712/2812 27025G35KT 9999 BKN025
TEMPO 2712/2717 4000 SHRA BKN015TCU
BECMG 2717/2719 27015KT
BECMG 2720/2723 21012KT
BECMG 2810/2812 21015G25KT
ATIS : +33 2 35 54 64 93



MET'MAP, your aeronautical weather chart ! - Copyright ORBIFLY December 2007 - Disclaimer

ORBIFLY MET'MAP TEAM :

Programming & Development : Alexandra Zaïnal
Concept & original design : Baudouin d'Aumeries
Assistance for programming : Marc-Olivier Méhu
Technical & hardware support : Manuel Goepfert

Contact : metmap@orbifly.com




SOURCES & CREDITS :

   NOAA